Main page
METAR-TAF:

METAR-TAF

Airports :

Clinton Municipal Airport

Clinton, Arkansas, United States

latitude: 35-35-52N, longitude: 092-27-06W, elevation: 515 ft

Current weather observation

The report was made 24 minutes ago, at 11:55 UTC
Calm wind
Temperature 68°F
Humidity 100%
Pressure 29.94 in. Hg
Visibility: 3 miles
Broken clouds at a height of 800 ft
Broken clouds at a height of 3900 ft
Overcast at a height of 11000 ft
thunderstorm in vicinity, rain

METAR: KCCA 231155Z AUTO 00000KT 3SM VCTS RA BKN008 BKN039 OVC110 20/20 A2994 RMK AO2 LTG DSNT ALQDS P0014

Time: 07:19 (12:19 UTC)


TAF: missing

Weather observations and forecasts of more than 4000 airports (METAR and TAF reports).

The available stations are represented by yellow and red dots on the map.

Hover mouse over dot to see the name of the station.

Then click to see weather observations and forecasts.

To change the map : click on the green buttons with a black cross to zoom in, on the green button with a dash to zoom out, or on the green arrows for adjacent maps.


METAR-TAF: